sensor_id;sensor_type;location;lat;lon;timestamp;P1;durP1;ratioP1;P2;durP2;ratioP2
38937;SDS011;24727;51.974;20.868;2022-09-13T00:00:36;10.32;;;8.27;;
38937;SDS011;24727;51.974;20.868;2022-09-13T00:03:03;9.18;;;7.38;;
38937;SDS011;24727;51.974;20.868;2022-09-13T00:05:30;34.88;;;10.23;;
38937;SDS011;24727;51.974;20.868;2022-09-13T00:07:57;9.95;;;7.82;;
38937;SDS011;24727;51.974;20.868;2022-09-13T00:10:24;13.25;;;8.57;;
38937;SDS011;24727;51.974;20.868;2022-09-13T00:12:51;10.00;;;7.60;;
38937;SDS011;24727;51.974;20.868;2022-09-13T00:15:18;14.95;;;8.77;;
38937;SDS011;24727;51.974;20.868;2022-09-13T00:17:44;52.80;;;10.68;;
38937;SDS011;24727;51.974;20.868;2022-09-13T00:20:11;13.20;;;10.07;;
38937;SDS011;24727;51.974;20.868;2022-09-13T00:22:37;11.52;;;9.40;;
38937;SDS011;24727;51.974;20.868;2022-09-13T00:25:03;12.00;;;8.90;;
38937;SDS011;24727;51.974;20.868;2022-09-13T00:27:34;14.20;;;8.82;;
38937;SDS011;24727;51.974;20.868;2022-09-13T00:30:02;11.75;;;8.80;;
38937;SDS011;24727;51.974;20.868;2022-09-13T00:32:29;11.55;;;8.60;;
38937;SDS011;24727;51.974;20.868;2022-09-13T00:34:57;10.55;;;7.85;;
38937;SDS011;24727;51.974;20.868;2022-09-13T00:37:23;9.00;;;7.20;;
38937;SDS011;24727;51.974;20.868;2022-09-13T00:39:48;10.50;;;8.55;;
38937;SDS011;24727;51.974;20.868;2022-09-13T00:42:15;11.40;;;7.85;;
38937;SDS011;24727;51.974;20.868;2022-09-13T00:44:53;10.85;;;7.63;;
38937;SDS011;24727;51.974;20.868;2022-09-13T00:48:03;16.38;;;7.28;;
38937;SDS011;24727;51.974;20.868;2022-09-13T00:50:42;10.85;;;7.68;;
38937;SDS011;24727;51.974;20.868;2022-09-13T00:53:16;10.57;;;7.47;;
38937;SDS011;24727;51.974;20.868;2022-09-13T00:58:33;9.55;;;7.65;;
38937;SDS011;24727;51.974;20.868;2022-09-13T01:03:41;12.60;;;7.78;;
38937;SDS011;24727;51.974;20.868;2022-09-13T01:06:14;11.70;;;7.45;;
38937;SDS011;24727;51.974;20.868;2022-09-13T01:08:50;10.40;;;7.55;;
38937;SDS011;24727;51.974;20.868;2022-09-13T01:11:19;9.98;;;7.78;;
38937;SDS011;24727;51.974;20.868;2022-09-13T01:13:54;9.20;;;7.88;;
38937;SDS011;24727;51.974;20.868;2022-09-13T01:16:22;10.02;;;7.03;;
38937;SDS011;24727;51.974;20.868;2022-09-13T01:18:48;9.88;;;7.20;;
38937;SDS011;24727;51.974;20.868;2022-09-13T01:21:25;9.57;;;7.93;;
38937;SDS011;24727;51.974;20.868;2022-09-13T01:24:04;9.43;;;7.88;;
38937;SDS011;24727;51.974;20.868;2022-09-13T01:38:00;9.05;;;7.60;;
38937;SDS011;24727;51.974;20.868;2022-09-13T01:40:34;10.82;;;8.55;;
38937;SDS011;24727;51.974;20.868;2022-09-13T01:45:55;18.23;;;9.00;;
38937;SDS011;24727;51.974;20.868;2022-09-13T01:53:39;12.45;;;9.10;;
38937;SDS011;24727;51.974;20.868;2022-09-13T01:59:06;15.50;;;9.15;;
38937;SDS011;24727;51.974;20.868;2022-09-13T02:02:03;12.75;;;9.40;;
38937;SDS011;24727;51.974;20.868;2022-09-13T02:04:39;11.07;;;8.13;;
38937;SDS011;24727;51.974;20.868;2022-09-13T02:07:09;11.75;;;9.07;;
38937;SDS011;24727;51.974;20.868;2022-09-13T02:09:50;16.17;;;8.85;;
38937;SDS011;24727;51.974;20.868;2022-09-13T02:12:23;13.48;;;7.88;;
38937;SDS011;24727;51.974;20.868;2022-09-13T02:14:57;11.85;;;8.35;;
38937;SDS011;24727;51.974;20.868;2022-09-13T02:17:30;11.68;;;8.82;;
38937;SDS011;24727;51.974;20.868;2022-09-13T02:20:48;9.68;;;8.02;;
38937;SDS011;24727;51.974;20.868;2022-09-13T02:22:52;10.68;;;8.15;;
38937;SDS011;24727;51.974;20.868;2022-09-13T02:25:21;14.88;;;8.20;;
38937;SDS011;24727;51.974;20.868;2022-09-13T02:27:51;11.63;;;8.90;;
38937;SDS011;24727;51.974;20.868;2022-09-13T02:30:23;7.97;;;6.35;;
38937;SDS011;24727;51.974;20.868;2022-09-13T02:32:58;7.50;;;5.80;;
38937;SDS011;24727;51.974;20.868;2022-09-13T02:35:34;8.40;;;6.28;;
38937;SDS011;24727;51.974;20.868;2022-09-13T02:38:11;11.95;;;7.75;;
38937;SDS011;24727;51.974;20.868;2022-09-13T02:40:47;9.00;;;6.78;;
38937;SDS011;24727;51.974;20.868;2022-09-13T02:43:21;13.80;;;7.78;;
38937;SDS011;24727;51.974;20.868;2022-09-13T02:49:25;10.38;;;6.75;;
38937;SDS011;24727;51.974;20.868;2022-09-13T02:52:26;15.45;;;7.22;;
38937;SDS011;24727;51.974;20.868;2022-09-13T02:54:57;15.00;;;7.10;;
38937;SDS011;24727;51.974;20.868;2022-09-13T02:58:13;11.73;;;6.80;;
38937;SDS011;24727;51.974;20.868;2022-09-13T03:00:53;11.13;;;6.78;;
38937;SDS011;24727;51.974;20.868;2022-09-13T03:03:20;9.55;;;6.68;;
38937;SDS011;24727;51.974;20.868;2022-09-13T03:05:46;12.80;;;6.38;;
38937;SDS011;24727;51.974;20.868;2022-09-13T03:08:13;7.63;;;5.90;;
38937;SDS011;24727;51.974;20.868;2022-09-13T03:10:47;7.50;;;5.50;;
38937;SDS011;24727;51.974;20.868;2022-09-13T03:18:43;9.57;;;6.32;;
38937;SDS011;24727;51.974;20.868;2022-09-13T03:24:12;12.40;;;6.18;;
38937;SDS011;24727;51.974;20.868;2022-09-13T03:26:48;9.93;;;6.15;;
38937;SDS011;24727;51.974;20.868;2022-09-13T03:32:13;7.75;;;6.00;;
38937;SDS011;24727;51.974;20.868;2022-09-13T03:38:01;10.57;;;6.40;;
38937;SDS011;24727;51.974;20.868;2022-09-13T03:40:41;7.10;;;5.70;;
38937;SDS011;24727;51.974;20.868;2022-09-13T03:43:53;8.57;;;5.35;;
38937;SDS011;24727;51.974;20.868;2022-09-13T03:46:09;6.85;;;4.05;;
38937;SDS011;24727;51.974;20.868;2022-09-13T03:48:40;6.38;;;5.53;;
38937;SDS011;24727;51.974;20.868;2022-09-13T03:51:08;9.05;;;5.60;;
38937;SDS011;24727;51.974;20.868;2022-09-13T03:53:36;7.15;;;5.43;;
38937;SDS011;24727;51.974;20.868;2022-09-13T03:56:14;7.40;;;5.50;;
38937;SDS011;24727;51.974;20.868;2022-09-13T03:58:42;7.10;;;5.95;;
38937;SDS011;24727;51.974;20.868;2022-09-13T04:01:09;7.30;;;6.40;;
38937;SDS011;24727;51.974;20.868;2022-09-13T04:03:35;6.65;;;5.32;;
38937;SDS011;24727;51.974;20.868;2022-09-13T04:06:02;8.90;;;5.35;;
38937;SDS011;24727;51.974;20.868;2022-09-13T04:08:29;7.63;;;5.38;;
38937;SDS011;24727;51.974;20.868;2022-09-13T04:10:55;6.07;;;5.00;;
38937;SDS011;24727;51.974;20.868;2022-09-13T04:13:21;8.65;;;5.03;;
38937;SDS011;24727;51.974;20.868;2022-09-13T04:15:49;8.07;;;5.10;;
38937;SDS011;24727;51.974;20.868;2022-09-13T04:18:15;6.88;;;5.25;;
38937;SDS011;24727;51.974;20.868;2022-09-13T04:20:41;6.85;;;5.28;;
38937;SDS011;24727;51.974;20.868;2022-09-13T04:23:07;8.80;;;5.15;;
38937;SDS011;24727;51.974;20.868;2022-09-13T04:25:36;9.63;;;5.70;;
38937;SDS011;24727;51.974;20.868;2022-09-13T04:28:03;8.50;;;5.30;;
38937;SDS011;24727;51.974;20.868;2022-09-13T04:30:29;5.88;;;4.95;;
38937;SDS011;24727;51.974;20.868;2022-09-13T04:32:55;7.38;;;4.68;;
38937;SDS011;24727;51.974;20.868;2022-09-13T04:35:22;7.40;;;4.93;;
38937;SDS011;24727;51.974;20.868;2022-09-13T04:37:49;6.95;;;5.18;;
38937;SDS011;24727;51.974;20.868;2022-09-13T04:40:15;7.55;;;5.47;;
38937;SDS011;24727;51.974;20.868;2022-09-13T04:42:42;7.60;;;5.18;;
38937;SDS011;24727;51.974;20.868;2022-09-13T04:45:10;7.15;;;5.40;;
38937;SDS011;24727;51.974;20.868;2022-09-13T04:47:37;6.25;;;5.25;;
38937;SDS011;24727;51.974;20.868;2022-09-13T04:50:03;7.25;;;5.50;;
38937;SDS011;24727;51.974;20.868;2022-09-13T04:52:29;5.93;;;4.97;;
38937;SDS011;24727;51.974;20.868;2022-09-13T04:54:56;8.05;;;6.43;;
38937;SDS011;24727;51.974;20.868;2022-09-13T04:57:26;15.25;;;6.07;;
38937;SDS011;24727;51.974;20.868;2022-09-13T04:59:52;11.15;;;6.53;;
38937;SDS011;24727;51.974;20.868;2022-09-13T05:02:18;8.15;;;6.05;;
38937;SDS011;24727;51.974;20.868;2022-09-13T05:04:45;7.05;;;6.35;;
38937;SDS011;24727;51.974;20.868;2022-09-13T05:07:13;8.30;;;6.90;;
38937;SDS011;24727;51.974;20.868;2022-09-13T05:09:39;7.47;;;6.50;;
38937;SDS011;24727;51.974;20.868;2022-09-13T05:12:05;7.43;;;6.63;;
38937;SDS011;24727;51.974;20.868;2022-09-13T05:14:31;8.48;;;6.60;;
38937;SDS011;24727;51.974;20.868;2022-09-13T05:16:59;8.48;;;7.65;;
38937;SDS011;24727;51.974;20.868;2022-09-13T05:19:25;8.50;;;7.20;;
38937;SDS011;24727;51.974;20.868;2022-09-13T05:21:52;10.82;;;7.28;;
38937;SDS011;24727;51.974;20.868;2022-09-13T05:24:19;7.47;;;6.30;;
38937;SDS011;24727;51.974;20.868;2022-09-13T05:26:47;7.72;;;6.82;;
38937;SDS011;24727;51.974;20.868;2022-09-13T05:29:12;7.72;;;6.82;;
38937;SDS011;24727;51.974;20.868;2022-09-13T05:31:39;8.07;;;7.25;;
38937;SDS011;24727;51.974;20.868;2022-09-13T05:34:08;10.55;;;7.18;;
38937;SDS011;24727;51.974;20.868;2022-09-13T05:36:36;7.57;;;6.60;;
38937;SDS011;24727;51.974;20.868;2022-09-13T05:39:03;9.93;;;7.45;;
38937;SDS011;24727;51.974;20.868;2022-09-13T05:41:30;7.80;;;7.00;;
38937;SDS011;24727;51.974;20.868;2022-09-13T05:43:56;8.15;;;6.75;;
38937;SDS011;24727;51.974;20.868;2022-09-13T05:46:22;8.88;;;6.50;;
38937;SDS011;24727;51.974;20.868;2022-09-13T05:48:49;7.13;;;6.43;;
38937;SDS011;24727;51.974;20.868;2022-09-13T05:51:19;9.73;;;6.80;;
38937;SDS011;24727;51.974;20.868;2022-09-13T05:53:47;9.52;;;7.50;;
38937;SDS011;24727;51.974;20.868;2022-09-13T05:56:16;9.07;;;6.72;;
38937;SDS011;24727;51.974;20.868;2022-09-13T05:58:47;7.63;;;6.80;;
38937;SDS011;24727;51.974;20.868;2022-09-13T06:01:15;12.63;;;5.85;;
38937;SDS011;24727;51.974;20.868;2022-09-13T06:03:45;6.65;;;5.47;;
38937;SDS011;24727;51.974;20.868;2022-09-13T06:06:15;6.88;;;6.18;;
38937;SDS011;24727;51.974;20.868;2022-09-13T06:08:43;7.18;;;6.00;;
38937;SDS011;24727;51.974;20.868;2022-09-13T06:11:10;9.20;;;6.57;;
38937;SDS011;24727;51.974;20.868;2022-09-13T06:13:38;6.45;;;5.82;;
38937;SDS011;24727;51.974;20.868;2022-09-13T06:16:11;10.93;;;6.35;;
38937;SDS011;24727;51.974;20.868;2022-09-13T06:18:38;8.77;;;5.95;;
38937;SDS011;24727;51.974;20.868;2022-09-13T06:21:05;9.52;;;6.03;;
38937;SDS011;24727;51.974;20.868;2022-09-13T06:23:47;7.50;;;5.72;;
38937;SDS011;24727;51.974;20.868;2022-09-13T06:26:19;6.97;;;5.82;;
38937;SDS011;24727;51.974;20.868;2022-09-13T06:28:47;7.75;;;6.07;;
38937;SDS011;24727;51.974;20.868;2022-09-13T06:31:15;6.97;;;5.20;;
38937;SDS011;24727;51.974;20.868;2022-09-13T06:33:42;7.30;;;6.32;;
38937;SDS011;24727;51.974;20.868;2022-09-13T06:36:09;8.65;;;6.53;;
38937;SDS011;24727;51.974;20.868;2022-09-13T06:38:40;10.35;;;6.00;;
38937;SDS011;24727;51.974;20.868;2022-09-13T06:41:08;10.45;;;6.45;;
38937;SDS011;24727;51.974;20.868;2022-09-13T06:43:38;12.65;;;7.18;;
38937;SDS011;24727;51.974;20.868;2022-09-13T06:46:07;8.50;;;7.35;;
38937;SDS011;24727;51.974;20.868;2022-09-13T06:48:38;9.13;;;7.13;;
38937;SDS011;24727;51.974;20.868;2022-09-13T06:51:08;10.98;;;7.28;;
38937;SDS011;24727;51.974;20.868;2022-09-13T06:53:35;10.45;;;7.57;;
38937;SDS011;24727;51.974;20.868;2022-09-13T06:56:12;11.13;;;6.70;;
38937;SDS011;24727;51.974;20.868;2022-09-13T06:58:41;8.50;;;6.53;;
38937;SDS011;24727;51.974;20.868;2022-09-13T07:03:38;9.50;;;5.70;;
38937;SDS011;24727;51.974;20.868;2022-09-13T07:06:09;8.35;;;5.90;;
38937;SDS011;24727;51.974;20.868;2022-09-13T07:08:40;7.38;;;5.93;;
38937;SDS011;24727;51.974;20.868;2022-09-13T07:11:08;8.93;;;5.72;;
38937;SDS011;24727;51.974;20.868;2022-09-13T07:13:38;7.47;;;5.35;;
38937;SDS011;24727;51.974;20.868;2022-09-13T07:16:08;7.95;;;5.38;;
38937;SDS011;24727;51.974;20.868;2022-09-13T07:18:35;7.38;;;5.47;;
38937;SDS011;24727;51.974;20.868;2022-09-13T07:21:06;6.63;;;4.85;;
38937;SDS011;24727;51.974;20.868;2022-09-13T07:23:34;5.65;;;5.03;;
38937;SDS011;24727;51.974;20.868;2022-09-13T07:26:02;6.07;;;5.05;;
38937;SDS011;24727;51.974;20.868;2022-09-13T07:28:31;9.90;;;4.40;;
38937;SDS011;24727;51.974;20.868;2022-09-13T07:31:06;7.05;;;3.72;;
38937;SDS011;24727;51.974;20.868;2022-09-13T07:33:44;8.50;;;4.55;;
38937;SDS011;24727;51.974;20.868;2022-09-13T07:36:12;7.97;;;3.97;;
38937;SDS011;24727;51.974;20.868;2022-09-13T07:38:39;5.70;;;3.95;;
38937;SDS011;24727;51.974;20.868;2022-09-13T07:41:06;6.90;;;3.63;;
38937;SDS011;24727;51.974;20.868;2022-09-13T07:43:35;5.90;;;3.70;;
38937;SDS011;24727;51.974;20.868;2022-09-13T07:48:37;3.58;;;3.03;;
38937;SDS011;24727;51.974;20.868;2022-09-13T07:51:15;2.20;;;2.00;;
38937;SDS011;24727;51.974;20.868;2022-09-13T07:53:45;3.33;;;2.47;;
38937;SDS011;24727;51.974;20.868;2022-09-13T07:56:16;3.15;;;2.28;;
38937;SDS011;24727;51.974;20.868;2022-09-13T07:58:47;3.63;;;1.80;;
38937;SDS011;24727;51.974;20.868;2022-09-13T08:01:19;3.03;;;1.70;;
38937;SDS011;24727;51.974;20.868;2022-09-13T08:03:50;2.42;;;1.88;;
38937;SDS011;24727;51.974;20.868;2022-09-13T08:06:17;1.85;;;1.58;;
38937;SDS011;24727;51.974;20.868;2022-09-13T08:08:43;2.70;;;1.50;;
38937;SDS011;24727;51.974;20.868;2022-09-13T08:11:13;2.78;;;1.70;;
38937;SDS011;24727;51.974;20.868;2022-09-13T08:13:44;4.60;;;1.75;;
38937;SDS011;24727;51.974;20.868;2022-09-13T08:18:47;4.05;;;1.13;;
38937;SDS011;24727;51.974;20.868;2022-09-13T08:21:14;1.92;;;1.45;;
38937;SDS011;24727;51.974;20.868;2022-09-13T08:23:41;4.13;;;1.40;;
38937;SDS011;24727;51.974;20.868;2022-09-13T08:26:08;3.50;;;1.27;;
38937;SDS011;24727;51.974;20.868;2022-09-13T08:28:35;1.80;;;1.45;;
38937;SDS011;24727;51.974;20.868;2022-09-13T08:31:06;2.00;;;1.50;;
38937;SDS011;24727;51.974;20.868;2022-09-13T08:33:34;2.50;;;1.42;;
38937;SDS011;24727;51.974;20.868;2022-09-13T08:36:00;1.83;;;1.20;;
38937;SDS011;24727;51.974;20.868;2022-09-13T08:38:28;2.38;;;1.48;;
38937;SDS011;24727;51.974;20.868;2022-09-13T08:40:56;5.95;;;1.50;;
38937;SDS011;24727;51.974;20.868;2022-09-13T08:48:38;3.13;;;1.45;;
38937;SDS011;24727;51.974;20.868;2022-09-13T08:51:15;2.55;;;1.70;;
38937;SDS011;24727;51.974;20.868;2022-09-13T08:53:53;2.42;;;1.10;;
38937;SDS011;24727;51.974;20.868;2022-09-13T08:56:22;1.45;;;1.20;;
38937;SDS011;24727;51.974;20.868;2022-09-13T09:07:14;2.42;;;1.45;;
38937;SDS011;24727;51.974;20.868;2022-09-13T09:09:47;1.85;;;1.50;;
38937;SDS011;24727;51.974;20.868;2022-09-13T09:12:41;2.33;;;1.50;;
38937;SDS011;24727;51.974;20.868;2022-09-13T09:15:28;2.92;;;1.70;;
38937;SDS011;24727;51.974;20.868;2022-09-13T09:18:03;2.38;;;1.60;;
38937;SDS011;24727;51.974;20.868;2022-09-13T09:20:41;2.42;;;1.50;;
38937;SDS011;24727;51.974;20.868;2022-09-13T09:23:20;2.92;;;1.45;;
38937;SDS011;24727;51.974;20.868;2022-09-13T09:25:55;3.88;;;1.30;;
38937;SDS011;24727;51.974;20.868;2022-09-13T09:28:42;1.60;;;1.50;;
38937;SDS011;24727;51.974;20.868;2022-09-13T09:31:32;2.97;;;1.40;;
38937;SDS011;24727;51.974;20.868;2022-09-13T09:37:19;1.90;;;1.70;;
38937;SDS011;24727;51.974;20.868;2022-09-13T09:39:51;5.00;;;1.63;;
38937;SDS011;24727;51.974;20.868;2022-09-13T09:42:22;2.28;;;1.40;;
38937;SDS011;24727;51.974;20.868;2022-09-13T09:44:51;2.35;;;1.45;;
38937;SDS011;24727;51.974;20.868;2022-09-13T09:47:25;3.38;;;1.88;;
38937;SDS011;24727;51.974;20.868;2022-09-13T09:49:56;2.90;;;1.77;;
38937;SDS011;24727;51.974;20.868;2022-09-13T09:55:44;2.45;;;1.40;;
38937;SDS011;24727;51.974;20.868;2022-09-13T09:58:16;2.60;;;1.65;;
38937;SDS011;24727;51.974;20.868;2022-09-13T10:00:56;4.28;;;1.73;;
38937;SDS011;24727;51.974;20.868;2022-09-13T10:03:24;1.70;;;1.60;;
38937;SDS011;24727;51.974;20.868;2022-09-13T10:06:13;2.53;;;1.40;;
38937;SDS011;24727;51.974;20.868;2022-09-13T10:08:43;4.30;;;1.52;;
38937;SDS011;24727;51.974;20.868;2022-09-13T10:17:11;3.35;;;1.42;;
38937;SDS011;24727;51.974;20.868;2022-09-13T10:19:53;2.58;;;1.58;;
38937;SDS011;24727;51.974;20.868;2022-09-13T10:22:20;2.08;;;1.70;;
38937;SDS011;24727;51.974;20.868;2022-09-13T10:24:48;2.30;;;2.08;;
38937;SDS011;24727;51.974;20.868;2022-09-13T10:27:57;2.63;;;2.00;;
38937;SDS011;24727;51.974;20.868;2022-09-13T10:30:22;7.97;;;1.90;;
38937;SDS011;24727;51.974;20.868;2022-09-13T10:32:55;3.70;;;1.95;;
38937;SDS011;24727;51.974;20.868;2022-09-13T10:35:22;4.55;;;2.55;;
38937;SDS011;24727;51.974;20.868;2022-09-13T10:37:50;3.67;;;2.08;;
38937;SDS011;24727;51.974;20.868;2022-09-13T10:42:57;4.63;;;2.67;;
38937;SDS011;24727;51.974;20.868;2022-09-13T10:45:26;3.88;;;2.15;;
38937;SDS011;24727;51.974;20.868;2022-09-13T10:48:08;4.50;;;1.92;;
38937;SDS011;24727;51.974;20.868;2022-09-13T10:50:40;4.10;;;2.92;;
38937;SDS011;24727;51.974;20.868;2022-09-13T10:53:35;5.40;;;2.45;;
38937;SDS011;24727;51.974;20.868;2022-09-13T10:56:07;2.22;;;1.90;;
38937;SDS011;24727;51.974;20.868;2022-09-13T10:58:46;2.40;;;1.75;;
38937;SDS011;24727;51.974;20.868;2022-09-13T11:04:00;4.30;;;2.40;;
38937;SDS011;24727;51.974;20.868;2022-09-13T11:09:13;2.55;;;2.30;;
38937;SDS011;24727;51.974;20.868;2022-09-13T11:11:58;5.05;;;2.92;;
38937;SDS011;24727;51.974;20.868;2022-09-13T11:14:49;4.15;;;3.00;;
38937;SDS011;24727;51.974;20.868;2022-09-13T11:20:30;5.10;;;3.47;;
38937;SDS011;24727;51.974;20.868;2022-09-13T11:40:23;2.28;;;2.10;;
38937;SDS011;24727;51.974;20.868;2022-09-13T11:57:05;4.43;;;3.38;;
38937;SDS011;24727;51.974;20.868;2022-09-13T11:59:42;4.18;;;2.63;;
38937;SDS011;24727;51.974;20.868;2022-09-13T12:05:15;4.82;;;2.97;;
38937;SDS011;24727;51.974;20.868;2022-09-13T12:10:58;4.05;;;2.88;;
38937;SDS011;24727;51.974;20.868;2022-09-13T12:13:40;4.57;;;3.10;;
38937;SDS011;24727;51.974;20.868;2022-09-13T12:16:18;3.75;;;3.20;;
38937;SDS011;24727;51.974;20.868;2022-09-13T12:18:50;5.20;;;3.35;;
38937;SDS011;24727;51.974;20.868;2022-09-13T13:17:43;3.92;;;2.92;;
38937;SDS011;24727;51.974;20.868;2022-09-13T13:33:51;3.80;;;3.00;;
38937;SDS011;24727;51.974;20.868;2022-09-13T13:39:09;9.63;;;3.55;;
38937;SDS011;24727;51.974;20.868;2022-09-13T13:42:01;4.38;;;2.72;;
38937;SDS011;24727;51.974;20.868;2022-09-13T13:49:44;3.35;;;3.05;;
38937;SDS011;24727;51.974;20.868;2022-09-13T13:53:16;5.50;;;3.10;;
38937;SDS011;24727;51.974;20.868;2022-09-13T14:01:02;3.70;;;3.35;;
38937;SDS011;24727;51.974;20.868;2022-09-13T14:03:41;4.55;;;3.10;;
38937;SDS011;24727;51.974;20.868;2022-09-13T14:06:43;5.15;;;3.13;;
38937;SDS011;24727;51.974;20.868;2022-09-13T14:09:35;4.28;;;3.17;;
38937;SDS011;24727;51.974;20.868;2022-09-13T14:12:19;4.75;;;3.33;;
38937;SDS011;24727;51.974;20.868;2022-09-13T14:15:41;4.10;;;3.67;;
38937;SDS011;24727;51.974;20.868;2022-09-13T14:18:00;4.47;;;4.07;;
38937;SDS011;24727;51.974;20.868;2022-09-13T14:20:36;6.30;;;4.03;;
38937;SDS011;24727;51.974;20.868;2022-09-13T14:23:15;5.45;;;4.20;;
38937;SDS011;24727;51.974;20.868;2022-09-13T14:25:42;5.28;;;3.88;;
38937;SDS011;24727;51.974;20.868;2022-09-13T14:28:12;4.95;;;4.47;;
38937;SDS011;24727;51.974;20.868;2022-09-13T14:30:43;3.42;;;3.13;;
38937;SDS011;24727;51.974;20.868;2022-09-13T14:33:32;3.72;;;3.42;;
38937;SDS011;24727;51.974;20.868;2022-09-13T14:36:03;4.72;;;4.28;;
38937;SDS011;24727;51.974;20.868;2022-09-13T14:41:13;4.45;;;3.50;;
38937;SDS011;24727;51.974;20.868;2022-09-13T14:43:42;4.15;;;3.83;;
38937;SDS011;24727;51.974;20.868;2022-09-13T14:46:15;5.28;;;4.22;;
38937;SDS011;24727;51.974;20.868;2022-09-13T14:54:20;4.90;;;4.38;;
38937;SDS011;24727;51.974;20.868;2022-09-13T14:57:13;4.68;;;4.30;;
38937;SDS011;24727;51.974;20.868;2022-09-13T14:59:52;4.50;;;4.05;;
38937;SDS011;24727;51.974;20.868;2022-09-13T15:02:26;5.18;;;4.68;;
38937;SDS011;24727;51.974;20.868;2022-09-13T15:04:58;5.22;;;4.32;;
38937;SDS011;24727;51.974;20.868;2022-09-13T15:07:32;5.03;;;4.28;;
38937;SDS011;24727;51.974;20.868;2022-09-13T15:10:08;5.75;;;4.28;;
38937;SDS011;24727;51.974;20.868;2022-09-13T15:12:48;5.72;;;4.90;;
38937;SDS011;24727;51.974;20.868;2022-09-13T15:15:38;5.70;;;4.70;;
38937;SDS011;24727;51.974;20.868;2022-09-13T15:18:20;4.63;;;4.22;;
38937;SDS011;24727;51.974;20.868;2022-09-13T15:20:59;5.57;;;4.88;;
38937;SDS011;24727;51.974;20.868;2022-09-13T15:23:28;9.07;;;4.75;;
38937;SDS011;24727;51.974;20.868;2022-09-13T15:26:06;6.75;;;5.20;;
38937;SDS011;24727;51.974;20.868;2022-09-13T15:28:57;5.40;;;4.65;;
38937;SDS011;24727;51.974;20.868;2022-09-13T15:31:24;7.70;;;4.85;;
38937;SDS011;24727;51.974;20.868;2022-09-13T15:36:45;5.88;;;4.85;;
38937;SDS011;24727;51.974;20.868;2022-09-13T15:39:15;5.30;;;4.80;;
38937;SDS011;24727;51.974;20.868;2022-09-13T15:41:57;6.88;;;4.40;;
38937;SDS011;24727;51.974;20.868;2022-09-13T15:44:25;4.72;;;4.30;;
38937;SDS011;24727;51.974;20.868;2022-09-13T15:47:00;4.50;;;4.10;;
38937;SDS011;24727;51.974;20.868;2022-09-13T15:49:29;3.95;;;3.58;;
38937;SDS011;24727;51.974;20.868;2022-09-13T15:51:57;5.45;;;4.60;;
38937;SDS011;24727;51.974;20.868;2022-09-13T15:54:31;4.70;;;4.00;;
38937;SDS011;24727;51.974;20.868;2022-09-13T15:57:12;4.32;;;3.75;;
38937;SDS011;24727;51.974;20.868;2022-09-13T15:59:49;5.78;;;3.97;;
38937;SDS011;24727;51.974;20.868;2022-09-13T16:02:19;5.10;;;3.72;;
38937;SDS011;24727;51.974;20.868;2022-09-13T16:04:59;6.03;;;4.25;;
38937;SDS011;24727;51.974;20.868;2022-09-13T16:07:25;4.60;;;4.20;;
38937;SDS011;24727;51.974;20.868;2022-09-13T16:09:51;5.35;;;4.25;;
38937;SDS011;24727;51.974;20.868;2022-09-13T16:12:18;4.13;;;3.72;;
38937;SDS011;24727;51.974;20.868;2022-09-13T16:14:46;4.85;;;4.07;;
38937;SDS011;24727;51.974;20.868;2022-09-13T16:17:15;4.78;;;3.95;;
38937;SDS011;24727;51.974;20.868;2022-09-13T16:19:46;6.03;;;4.28;;
38937;SDS011;24727;51.974;20.868;2022-09-13T16:22:12;5.82;;;3.88;;
38937;SDS011;24727;51.974;20.868;2022-09-13T16:24:38;4.88;;;3.90;;
38937;SDS011;24727;51.974;20.868;2022-09-13T16:27:06;5.03;;;4.50;;
38937;SDS011;24727;51.974;20.868;2022-09-13T16:29:32;6.03;;;4.07;;
38937;SDS011;24727;51.974;20.868;2022-09-13T16:31:59;5.20;;;4.70;;
38937;SDS011;24727;51.974;20.868;2022-09-13T16:34:26;6.63;;;4.78;;
38937;SDS011;24727;51.974;20.868;2022-09-13T16:36:52;6.05;;;4.50;;
38937;SDS011;24727;51.974;20.868;2022-09-13T16:39:18;4.60;;;4.00;;
38937;SDS011;24727;51.974;20.868;2022-09-13T16:41:45;4.70;;;4.10;;
38937;SDS011;24727;51.974;20.868;2022-09-13T16:44:10;5.22;;;3.78;;
38937;SDS011;24727;51.974;20.868;2022-09-13T16:46:38;5.28;;;4.78;;
38937;SDS011;24727;51.974;20.868;2022-09-13T16:49:05;11.35;;;5.70;;
38937;SDS011;24727;51.974;20.868;2022-09-13T16:51:31;6.80;;;5.72;;
38937;SDS011;24727;51.974;20.868;2022-09-13T16:53:57;5.82;;;5.13;;
38937;SDS011;24727;51.974;20.868;2022-09-13T16:56:24;5.97;;;4.85;;
38937;SDS011;24727;51.974;20.868;2022-09-13T16:58:51;8.18;;;5.30;;
38937;SDS011;24727;51.974;20.868;2022-09-13T17:01:25;7.10;;;5.20;;
38937;SDS011;24727;51.974;20.868;2022-09-13T17:03:52;6.43;;;5.20;;
38937;SDS011;24727;51.974;20.868;2022-09-13T17:06:19;6.32;;;5.15;;
38937;SDS011;24727;51.974;20.868;2022-09-13T17:08:47;8.65;;;6.25;;
38937;SDS011;24727;51.974;20.868;2022-09-13T17:11:16;5.35;;;4.75;;
38937;SDS011;24727;51.974;20.868;2022-09-13T17:13:43;6.10;;;4.95;;
38937;SDS011;24727;51.974;20.868;2022-09-13T17:16:44;7.90;;;5.53;;
38937;SDS011;24727;51.974;20.868;2022-09-13T17:19:07;6.88;;;4.63;;
38937;SDS011;24727;51.974;20.868;2022-09-13T17:21:37;8.32;;;5.20;;
38937;SDS011;24727;51.974;20.868;2022-09-13T17:24:03;5.90;;;5.13;;
38937;SDS011;24727;51.974;20.868;2022-09-13T17:26:30;7.38;;;5.25;;
38937;SDS011;24727;51.974;20.868;2022-09-13T17:28:57;7.05;;;4.80;;
38937;SDS011;24727;51.974;20.868;2022-09-13T17:31:24;7.82;;;5.15;;
38937;SDS011;24727;51.974;20.868;2022-09-13T17:33:50;5.45;;;4.90;;
38937;SDS011;24727;51.974;20.868;2022-09-13T17:36:17;6.85;;;5.15;;
38937;SDS011;24727;51.974;20.868;2022-09-13T17:38:44;8.98;;;5.78;;
38937;SDS011;24727;51.974;20.868;2022-09-13T17:41:12;5.97;;;5.20;;
38937;SDS011;24727;51.974;20.868;2022-09-13T17:43:40;8.18;;;5.20;;
38937;SDS011;24727;51.974;20.868;2022-09-13T17:46:07;7.60;;;5.93;;
38937;SDS011;24727;51.974;20.868;2022-09-13T17:48:39;7.00;;;5.95;;
38937;SDS011;24727;51.974;20.868;2022-09-13T17:51:10;8.73;;;6.55;;
38937;SDS011;24727;51.974;20.868;2022-09-13T17:53:42;9.65;;;5.35;;
38937;SDS011;24727;51.974;20.868;2022-09-13T17:56:46;7.43;;;5.70;;
38937;SDS011;24727;51.974;20.868;2022-09-13T18:01:34;9.73;;;5.82;;
38937;SDS011;24727;51.974;20.868;2022-09-13T18:04:01;8.35;;;5.90;;
38937;SDS011;24727;51.974;20.868;2022-09-13T18:06:28;6.55;;;5.53;;
38937;SDS011;24727;51.974;20.868;2022-09-13T18:08:55;11.48;;;5.88;;
38937;SDS011;24727;51.974;20.868;2022-09-13T18:11:22;7.13;;;6.25;;
38937;SDS011;24727;51.974;20.868;2022-09-13T18:13:49;6.93;;;5.50;;
38937;SDS011;24727;51.974;20.868;2022-09-13T18:16:17;7.25;;;5.88;;
38937;SDS011;24727;51.974;20.868;2022-09-13T18:18:44;8.93;;;6.80;;
38937;SDS011;24727;51.974;20.868;2022-09-13T18:21:12;7.93;;;5.63;;
38937;SDS011;24727;51.974;20.868;2022-09-13T18:23:43;8.63;;;5.78;;
38937;SDS011;24727;51.974;20.868;2022-09-13T18:26:12;11.10;;;6.82;;
38937;SDS011;24727;51.974;20.868;2022-09-13T18:28:40;7.38;;;6.03;;
38937;SDS011;24727;51.974;20.868;2022-09-13T18:31:13;7.03;;;5.78;;
38937;SDS011;24727;51.974;20.868;2022-09-13T18:33:40;5.32;;;4.80;;
38937;SDS011;24727;51.974;20.868;2022-09-13T18:36:08;8.63;;;5.72;;
38937;SDS011;24727;51.974;20.868;2022-09-13T18:38:43;10.30;;;5.82;;
38937;SDS011;24727;51.974;20.868;2022-09-13T18:41:18;6.03;;;5.20;;
38937;SDS011;24727;51.974;20.868;2022-09-13T18:43:47;6.35;;;5.47;;